sensor_id;sensor_type;location;lat;lon;timestamp;temperature;humidity
51725;DHT22;37801;53.224;6.552;2022-09-27T00:01:11;10.80;99.90
51725;DHT22;37801;53.224;6.552;2022-09-27T00:03:37;10.80;99.90
51725;DHT22;37801;53.224;6.552;2022-09-27T00:06:07;10.80;99.90
51725;DHT22;37801;53.224;6.552;2022-09-27T00:08:34;10.80;99.90
51725;DHT22;37801;53.224;6.552;2022-09-27T00:11:16;10.70;99.90
51725;DHT22;37801;53.224;6.552;2022-09-27T00:13:42;10.70;99.90
51725;DHT22;37801;53.224;6.552;2022-09-27T00:16:08;10.70;99.90
51725;DHT22;37801;53.224;6.552;2022-09-27T00:18:34;10.70;99.90
51725;DHT22;37801;53.224;6.552;2022-09-27T00:21:09;10.80;99.90
51725;DHT22;37801;53.224;6.552;2022-09-27T00:23:35;10.80;99.90
51725;DHT22;37801;53.224;6.552;2022-09-27T00:26:02;10.90;99.90
51725;DHT22;37801;53.224;6.552;2022-09-27T00:28:28;10.90;99.90
51725;DHT22;37801;53.224;6.552;2022-09-27T00:30:54;11.00;99.90
51725;DHT22;37801;53.224;6.552;2022-09-27T00:33:19;11.00;99.90
51725;DHT22;37801;53.224;6.552;2022-09-27T00:35:45;11.00;99.90
51725;DHT22;37801;53.224;6.552;2022-09-27T00:38:12;11.10;99.90
51725;DHT22;37801;53.224;6.552;2022-09-27T00:40:38;11.10;99.90
51725;DHT22;37801;53.224;6.552;2022-09-27T00:43:19;11.20;99.90
51725;DHT22;37801;53.224;6.552;2022-09-27T00:45:51;11.20;99.90
51725;DHT22;37801;53.224;6.552;2022-09-27T00:48:20;11.10;99.90
51725;DHT22;37801;53.224;6.552;2022-09-27T00:50:49;11.10;99.90
51725;DHT22;37801;53.224;6.552;2022-09-27T00:53:26;11.10;99.90
51725;DHT22;37801;53.224;6.552;2022-09-27T00:55:59;11.00;99.90
51725;DHT22;37801;53.224;6.552;2022-09-27T00:58:29;10.90;99.90
51725;DHT22;37801;53.224;6.552;2022-09-27T01:00:59;10.90;99.90
51725;DHT22;37801;53.224;6.552;2022-09-27T01:04:00;10.80;99.90
51725;DHT22;37801;53.224;6.552;2022-09-27T01:06:28;10.90;99.90
51725;DHT22;37801;53.224;6.552;2022-09-27T01:08:53;10.90;99.90
51725;DHT22;37801;53.224;6.552;2022-09-27T01:17:01;10.70;99.90
51725;DHT22;37801;53.224;6.552;2022-09-27T01:19:46;10.80;99.90
51725;DHT22;37801;53.224;6.552;2022-09-27T01:22:51;10.70;99.90
51725;DHT22;37801;53.224;6.552;2022-09-27T01:28:20;10.80;99.90
51725;DHT22;37801;53.224;6.552;2022-09-27T01:30:52;10.80;99.90
51725;DHT22;37801;53.224;6.552;2022-09-27T01:33:39;10.80;99.90
51725;DHT22;37801;53.224;6.552;2022-09-27T01:39:05;10.90;99.90
51725;DHT22;37801;53.224;6.552;2022-09-27T01:44:35;10.80;99.90
51725;DHT22;37801;53.224;6.552;2022-09-27T01:47:12;10.70;99.90
51725;DHT22;37801;53.224;6.552;2022-09-27T01:52:36;10.50;99.90
51725;DHT22;37801;53.224;6.552;2022-09-27T01:55:05;10.50;99.90
51725;DHT22;37801;53.224;6.552;2022-09-27T01:57:39;10.50;99.90
51725;DHT22;37801;53.224;6.552;2022-09-27T02:00:09;10.40;99.90
51725;DHT22;37801;53.224;6.552;2022-09-27T02:02:51;10.40;99.90
51725;DHT22;37801;53.224;6.552;2022-09-27T02:05:19;10.40;99.90
51725;DHT22;37801;53.224;6.552;2022-09-27T02:07:52;10.40;99.90
51725;DHT22;37801;53.224;6.552;2022-09-27T02:10:24;10.40;99.90
51725;DHT22;37801;53.224;6.552;2022-09-27T02:13:18;10.40;99.90
51725;DHT22;37801;53.224;6.552;2022-09-27T02:18:33;10.30;99.90
51725;DHT22;37801;53.224;6.552;2022-09-27T02:21:01;10.30;99.90
51725;DHT22;37801;53.224;6.552;2022-09-27T02:23:38;10.20;99.90
51725;DHT22;37801;53.224;6.552;2022-09-27T02:26:14;10.20;99.90
51725;DHT22;37801;53.224;6.552;2022-09-27T02:28:46;10.10;99.90
51725;DHT22;37801;53.224;6.552;2022-09-27T02:31:12;10.00;99.90
51725;DHT22;37801;53.224;6.552;2022-09-27T02:33:47;10.10;99.90
51725;DHT22;37801;53.224;6.552;2022-09-27T02:36:14;10.10;99.90
51725;DHT22;37801;53.224;6.552;2022-09-27T02:38:41;10.10;99.90
51725;DHT22;37801;53.224;6.552;2022-09-27T02:41:18;10.00;99.90
51725;DHT22;37801;53.224;6.552;2022-09-27T02:43:47;10.00;99.90
51725;DHT22;37801;53.224;6.552;2022-09-27T02:55:14;10.30;99.90
51725;DHT22;37801;53.224;6.552;2022-09-27T02:58:15;10.30;99.90
51725;DHT22;37801;53.224;6.552;2022-09-27T03:03:34;10.40;99.90
51725;DHT22;37801;53.224;6.552;2022-09-27T03:06:07;10.30;99.90
51725;DHT22;37801;53.224;6.552;2022-09-27T03:08:34;10.30;99.90
51725;DHT22;37801;53.224;6.552;2022-09-27T03:11:01;10.20;99.90
51725;DHT22;37801;53.224;6.552;2022-09-27T03:13:27;10.20;99.90
51725;DHT22;37801;53.224;6.552;2022-09-27T03:15:52;10.10;99.90
51725;DHT22;37801;53.224;6.552;2022-09-27T03:18:18;10.10;99.90
51725;DHT22;37801;53.224;6.552;2022-09-27T03:20:44;10.10;99.90
51725;DHT22;37801;53.224;6.552;2022-09-27T03:23:10;10.10;99.90
51725;DHT22;37801;53.224;6.552;2022-09-27T03:25:36;10.10;99.90
51725;DHT22;37801;53.224;6.552;2022-09-27T03:28:01;9.90;99.90
51725;DHT22;37801;53.224;6.552;2022-09-27T03:30:27;9.90;99.90
51725;DHT22;37801;53.224;6.552;2022-09-27T03:32:53;10.00;99.90
51725;DHT22;37801;53.224;6.552;2022-09-27T03:35:18;10.00;99.90
51725;DHT22;37801;53.224;6.552;2022-09-27T03:37:44;10.00;99.90
51725;DHT22;37801;53.224;6.552;2022-09-27T03:40:12;9.90;99.90
51725;DHT22;37801;53.224;6.552;2022-09-27T03:42:38;10.00;99.90
51725;DHT22;37801;53.224;6.552;2022-09-27T03:45:04;9.90;99.90
51725;DHT22;37801;53.224;6.552;2022-09-27T03:47:30;10.00;99.90
51725;DHT22;37801;53.224;6.552;2022-09-27T03:49:55;10.00;99.90
51725;DHT22;37801;53.224;6.552;2022-09-27T03:52:21;10.00;99.90
51725;DHT22;37801;53.224;6.552;2022-09-27T03:54:47;10.00;99.90
51725;DHT22;37801;53.224;6.552;2022-09-27T03:57:13;10.00;99.90
51725;DHT22;37801;53.224;6.552;2022-09-27T03:59:39;10.00;99.90
51725;DHT22;37801;53.224;6.552;2022-09-27T04:02:04;10.00;99.90
51725;DHT22;37801;53.224;6.552;2022-09-27T04:04:30;9.90;99.90
51725;DHT22;37801;53.224;6.552;2022-09-27T04:06:56;9.90;99.90
51725;DHT22;37801;53.224;6.552;2022-09-27T04:09:23;9.90;99.90
51725;DHT22;37801;53.224;6.552;2022-09-27T04:11:49;9.90;99.90
51725;DHT22;37801;53.224;6.552;2022-09-27T04:14:15;9.90;99.90
51725;DHT22;37801;53.224;6.552;2022-09-27T04:16:41;10.00;99.90
51725;DHT22;37801;53.224;6.552;2022-09-27T04:19:08;9.90;99.90
51725;DHT22;37801;53.224;6.552;2022-09-27T04:21:34;9.90;99.90
51725;DHT22;37801;53.224;6.552;2022-09-27T04:24:00;9.90;99.90
51725;DHT22;37801;53.224;6.552;2022-09-27T04:26:26;9.80;99.90
51725;DHT22;37801;53.224;6.552;2022-09-27T04:28:52;9.80;99.90
51725;DHT22;37801;53.224;6.552;2022-09-27T04:31:18;9.80;99.90
51725;DHT22;37801;53.224;6.552;2022-09-27T04:33:44;9.80;99.90
51725;DHT22;37801;53.224;6.552;2022-09-27T04:36:16;9.80;99.90
51725;DHT22;37801;53.224;6.552;2022-09-27T04:38:54;9.80;99.90
51725;DHT22;37801;53.224;6.552;2022-09-27T04:41:20;9.80;99.90
51725;DHT22;37801;53.224;6.552;2022-09-27T04:43:46;9.90;99.90
51725;DHT22;37801;53.224;6.552;2022-09-27T04:46:12;9.80;99.90
51725;DHT22;37801;53.224;6.552;2022-09-27T04:48:38;9.90;99.90
51725;DHT22;37801;53.224;6.552;2022-09-27T04:51:05;9.90;99.90
51725;DHT22;37801;53.224;6.552;2022-09-27T04:53:31;9.90;99.90
51725;DHT22;37801;53.224;6.552;2022-09-27T04:55:58;9.80;99.90
51725;DHT22;37801;53.224;6.552;2022-09-27T04:58:24;9.90;99.90
51725;DHT22;37801;53.224;6.552;2022-09-27T05:00:50;10.00;99.90
51725;DHT22;37801;53.224;6.552;2022-09-27T05:03:22;10.00;99.90
51725;DHT22;37801;53.224;6.552;2022-09-27T05:05:48;10.00;99.90
51725;DHT22;37801;53.224;6.552;2022-09-27T05:08:13;10.00;99.90
51725;DHT22;37801;53.224;6.552;2022-09-27T05:10:39;9.90;99.90
51725;DHT22;37801;53.224;6.552;2022-09-27T05:13:05;9.90;99.90
51725;DHT22;37801;53.224;6.552;2022-09-27T05:15:31;9.90;99.90
51725;DHT22;37801;53.224;6.552;2022-09-27T05:17:57;9.80;99.90
51725;DHT22;37801;53.224;6.552;2022-09-27T05:20:23;9.70;99.90
51725;DHT22;37801;53.224;6.552;2022-09-27T05:22:50;9.70;99.90
51725;DHT22;37801;53.224;6.552;2022-09-27T05:25:16;9.70;99.90
51725;DHT22;37801;53.224;6.552;2022-09-27T05:27:42;9.70;99.90
51725;DHT22;37801;53.224;6.552;2022-09-27T05:30:08;9.80;99.90
51725;DHT22;37801;53.224;6.552;2022-09-27T05:32:44;9.80;99.90
51725;DHT22;37801;53.224;6.552;2022-09-27T05:35:11;9.80;99.90
51725;DHT22;37801;53.224;6.552;2022-09-27T05:37:37;9.80;99.90
51725;DHT22;37801;53.224;6.552;2022-09-27T05:40:04;9.80;99.90
51725;DHT22;37801;53.224;6.552;2022-09-27T05:42:31;9.80;99.90
51725;DHT22;37801;53.224;6.552;2022-09-27T05:44:58;9.90;99.90
51725;DHT22;37801;53.224;6.552;2022-09-27T05:47:24;9.90;99.90
51725;DHT22;37801;53.224;6.552;2022-09-27T05:49:50;9.90;99.90
51725;DHT22;37801;53.224;6.552;2022-09-27T05:52:16;9.90;99.90
51725;DHT22;37801;53.224;6.552;2022-09-27T05:54:42;10.00;99.90
51725;DHT22;37801;53.224;6.552;2022-09-27T05:57:08;10.00;99.90
51725;DHT22;37801;53.224;6.552;2022-09-27T05:59:34;10.00;99.90
51725;DHT22;37801;53.224;6.552;2022-09-27T06:01:59;10.10;99.90
51725;DHT22;37801;53.224;6.552;2022-09-27T06:04:26;10.00;99.90
51725;DHT22;37801;53.224;6.552;2022-09-27T06:06:52;10.00;99.90
51725;DHT22;37801;53.224;6.552;2022-09-27T06:09:17;9.90;99.90
51725;DHT22;37801;53.224;6.552;2022-09-27T06:11:43;9.90;99.90
51725;DHT22;37801;53.224;6.552;2022-09-27T06:14:10;10.00;99.90
51725;DHT22;37801;53.224;6.552;2022-09-27T06:16:36;10.00;99.90
51725;DHT22;37801;53.224;6.552;2022-09-27T06:19:02;10.00;99.90
51725;DHT22;37801;53.224;6.552;2022-09-27T06:21:29;10.00;99.90
51725;DHT22;37801;53.224;6.552;2022-09-27T06:23:57;10.10;99.90
51725;DHT22;37801;53.224;6.552;2022-09-27T06:26:24;10.10;99.90
51725;DHT22;37801;53.224;6.552;2022-09-27T06:28:52;10.20;99.90
51725;DHT22;37801;53.224;6.552;2022-09-27T06:31:19;10.30;99.90
51725;DHT22;37801;53.224;6.552;2022-09-27T06:33:45;10.40;99.90
51725;DHT22;37801;53.224;6.552;2022-09-27T06:36:11;10.50;99.90
51725;DHT22;37801;53.224;6.552;2022-09-27T06:38:36;10.50;99.90
51725;DHT22;37801;53.224;6.552;2022-09-27T06:41:04;10.50;99.90
51725;DHT22;37801;53.224;6.552;2022-09-27T06:43:31;10.50;99.90
51725;DHT22;37801;53.224;6.552;2022-09-27T06:45:59;10.40;99.90
51725;DHT22;37801;53.224;6.552;2022-09-27T06:48:31;10.30;99.90
51725;DHT22;37801;53.224;6.552;2022-09-27T06:50:57;10.30;99.90
51725;DHT22;37801;53.224;6.552;2022-09-27T06:53:24;10.20;99.90
51725;DHT22;37801;53.224;6.552;2022-09-27T06:55:50;10.30;99.90
51725;DHT22;37801;53.224;6.552;2022-09-27T06:58:16;10.30;99.90
51725;DHT22;37801;53.224;6.552;2022-09-27T07:01:02;10.30;99.90
51725;DHT22;37801;53.224;6.552;2022-09-27T07:03:29;10.30;99.90
51725;DHT22;37801;53.224;6.552;2022-09-27T07:06:03;10.40;99.90
51725;DHT22;37801;53.224;6.552;2022-09-27T07:08:29;10.40;99.90
51725;DHT22;37801;53.224;6.552;2022-09-27T07:11:00;10.50;99.90
51725;DHT22;37801;53.224;6.552;2022-09-27T07:13:28;10.60;99.90
51725;DHT22;37801;53.224;6.552;2022-09-27T07:15:56;10.70;99.90
51725;DHT22;37801;53.224;6.552;2022-09-27T07:18:21;10.70;99.90
51725;DHT22;37801;53.224;6.552;2022-09-27T07:20:47;10.70;99.90
51725;DHT22;37801;53.224;6.552;2022-09-27T07:23:14;10.80;99.90
51725;DHT22;37801;53.224;6.552;2022-09-27T07:25:40;10.80;99.90
51725;DHT22;37801;53.224;6.552;2022-09-27T07:28:08;10.80;99.90
51725;DHT22;37801;53.224;6.552;2022-09-27T07:30:36;10.80;99.90
51725;DHT22;37801;53.224;6.552;2022-09-27T07:33:04;10.80;99.90
51725;DHT22;37801;53.224;6.552;2022-09-27T07:35:30;10.80;99.90
51725;DHT22;37801;53.224;6.552;2022-09-27T07:37:56;10.80;99.90
51725;DHT22;37801;53.224;6.552;2022-09-27T07:40:23;11.00;99.90
51725;DHT22;37801;53.224;6.552;2022-09-27T07:42:56;11.00;99.90
51725;DHT22;37801;53.224;6.552;2022-09-27T07:45:24;11.10;99.90
51725;DHT22;37801;53.224;6.552;2022-09-27T07:47:50;11.30;99.90
51725;DHT22;37801;53.224;6.552;2022-09-27T07:50:16;11.40;99.90
51725;DHT22;37801;53.224;6.552;2022-09-27T07:52:44;11.30;99.90
51725;DHT22;37801;53.224;6.552;2022-09-27T07:55:11;11.20;99.90
51725;DHT22;37801;53.224;6.552;2022-09-27T07:57:37;11.10;99.90
51725;DHT22;37801;53.224;6.552;2022-09-27T08:00:05;11.00;99.90
51725;DHT22;37801;53.224;6.552;2022-09-27T08:02:31;10.90;99.90
51725;DHT22;37801;53.224;6.552;2022-09-27T08:04:58;10.90;99.90
51725;DHT22;37801;53.224;6.552;2022-09-27T08:07:24;10.90;99.90
51725;DHT22;37801;53.224;6.552;2022-09-27T08:09:50;10.90;99.90
51725;DHT22;37801;53.224;6.552;2022-09-27T08:12:17;10.80;99.90
51725;DHT22;37801;53.224;6.552;2022-09-27T08:14:42;10.80;99.90
51725;DHT22;37801;53.224;6.552;2022-09-27T08:17:11;10.90;99.90
51725;DHT22;37801;53.224;6.552;2022-09-27T08:19:37;10.90;99.90
51725;DHT22;37801;53.224;6.552;2022-09-27T08:22:04;10.90;99.90
51725;DHT22;37801;53.224;6.552;2022-09-27T08:24:30;11.00;99.90
51725;DHT22;37801;53.224;6.552;2022-09-27T08:26:57;11.10;99.90
51725;DHT22;37801;53.224;6.552;2022-09-27T08:29:22;11.10;99.90
51725;DHT22;37801;53.224;6.552;2022-09-27T08:31:50;11.20;99.90
51725;DHT22;37801;53.224;6.552;2022-09-27T08:34:16;11.30;99.90
51725;DHT22;37801;53.224;6.552;2022-09-27T08:36:42;11.40;99.90
51725;DHT22;37801;53.224;6.552;2022-09-27T08:39:08;11.40;99.90
51725;DHT22;37801;53.224;6.552;2022-09-27T08:41:36;11.50;99.90
51725;DHT22;37801;53.224;6.552;2022-09-27T08:52:20;11.70;99.90
51725;DHT22;37801;53.224;6.552;2022-09-27T08:54:47;11.70;99.90
51725;DHT22;37801;53.224;6.552;2022-09-27T08:57:14;11.70;99.90
51725;DHT22;37801;53.224;6.552;2022-09-27T09:00:11;11.60;99.90
51725;DHT22;37801;53.224;6.552;2022-09-27T09:02:37;11.60;99.90
51725;DHT22;37801;53.224;6.552;2022-09-27T09:05:16;11.60;99.90
51725;DHT22;37801;53.224;6.552;2022-09-27T09:08:06;11.70;99.90
51725;DHT22;37801;53.224;6.552;2022-09-27T09:10:58;11.70;99.90
51725;DHT22;37801;53.224;6.552;2022-09-27T09:16:42;11.80;99.90
51725;DHT22;37801;53.224;6.552;2022-09-27T09:22:32;11.80;99.90
51725;DHT22;37801;53.224;6.552;2022-09-27T09:30:23;11.60;99.90
51725;DHT22;37801;53.224;6.552;2022-09-27T09:33:20;11.60;99.90
51725;DHT22;37801;53.224;6.552;2022-09-27T09:38:22;11.20;99.90
51725;DHT22;37801;53.224;6.552;2022-09-27T09:41:04;11.20;99.90
51725;DHT22;37801;53.224;6.552;2022-09-27T09:43:44;11.20;99.90
51725;DHT22;37801;53.224;6.552;2022-09-27T09:46:30;11.00;99.90
51725;DHT22;37801;53.224;6.552;2022-09-27T09:52:05;11.20;99.90
51725;DHT22;37801;53.224;6.552;2022-09-27T09:54:39;11.20;99.90
51725;DHT22;37801;53.224;6.552;2022-09-27T09:57:20;10.80;99.90
51725;DHT22;37801;53.224;6.552;2022-09-27T09:59:56;10.90;99.90
51725;DHT22;37801;53.224;6.552;2022-09-27T10:02:34;11.10;99.90
51725;DHT22;37801;53.224;6.552;2022-09-27T10:05:00;11.10;99.90
51725;DHT22;37801;53.224;6.552;2022-09-27T10:07:28;11.30;99.90
51725;DHT22;37801;53.224;6.552;2022-09-27T10:09:58;11.20;99.90
51725;DHT22;37801;53.224;6.552;2022-09-27T10:12:25;11.40;99.90
51725;DHT22;37801;53.224;6.552;2022-09-27T10:14:52;11.20;99.90
51725;DHT22;37801;53.224;6.552;2022-09-27T10:17:23;11.20;99.90
51725;DHT22;37801;53.224;6.552;2022-09-27T10:19:49;11.30;99.90
51725;DHT22;37801;53.224;6.552;2022-09-27T10:22:30;11.20;99.90
51725;DHT22;37801;53.224;6.552;2022-09-27T10:25:00;11.30;99.90
51725;DHT22;37801;53.224;6.552;2022-09-27T10:27:39;11.20;99.90
51725;DHT22;37801;53.224;6.552;2022-09-27T10:30:11;11.40;99.90
51725;DHT22;37801;53.224;6.552;2022-09-27T10:32:49;11.40;99.90
51725;DHT22;37801;53.224;6.552;2022-09-27T10:40:39;11.40;99.90
51725;DHT22;37801;53.224;6.552;2022-09-27T10:43:35;11.70;99.90
51725;DHT22;37801;53.224;6.552;2022-09-27T10:46:11;11.60;99.90
51725;DHT22;37801;53.224;6.552;2022-09-27T10:48:38;11.60;99.90
51725;DHT22;37801;53.224;6.552;2022-09-27T10:51:24;11.70;99.90
51725;DHT22;37801;53.224;6.552;2022-09-27T10:53:52;11.40;99.90
51725;DHT22;37801;53.224;6.552;2022-09-27T10:56:25;11.40;99.90
51725;DHT22;37801;53.224;6.552;2022-09-27T10:58:52;11.40;99.90
51725;DHT22;37801;53.224;6.552;2022-09-27T11:01:19;11.30;99.90
51725;DHT22;37801;53.224;6.552;2022-09-27T11:03:48;11.30;99.90
51725;DHT22;37801;53.224;6.552;2022-09-27T11:08:49;11.10;99.90
51725;DHT22;37801;53.224;6.552;2022-09-27T11:14:03;10.80;99.90
51725;DHT22;37801;53.224;6.552;2022-09-27T11:19:33;11.10;99.90
51725;DHT22;37801;53.224;6.552;2022-09-27T11:36:54;11.40;99.90
51725;DHT22;37801;53.224;6.552;2022-09-27T11:40:04;11.60;99.90
51725;DHT22;37801;53.224;6.552;2022-09-27T11:48:13;11.50;99.90
51725;DHT22;37801;53.224;6.552;2022-09-27T12:01:55;11.20;99.90
51725;DHT22;37801;53.224;6.552;2022-09-27T12:07:18;10.60;99.90
51725;DHT22;37801;53.224;6.552;2022-09-27T12:09:52;10.70;99.90
51725;DHT22;37801;53.224;6.552;2022-09-27T12:12:24;10.70;99.90
51725;DHT22;37801;53.224;6.552;2022-09-27T12:14:59;11.00;99.90
51725;DHT22;37801;53.224;6.552;2022-09-27T12:17:30;11.00;99.90
51725;DHT22;37801;53.224;6.552;2022-09-27T12:20:01;11.00;99.90
51725;DHT22;37801;53.224;6.552;2022-09-27T12:25:16;11.00;99.90
51725;DHT22;37801;53.224;6.552;2022-09-27T12:27:46;10.90;99.90
51725;DHT22;37801;53.224;6.552;2022-09-27T12:30:14;11.10;99.90
51725;DHT22;37801;53.224;6.552;2022-09-27T12:33:22;11.10;99.90
51725;DHT22;37801;53.224;6.552;2022-09-27T12:35:47;11.10;99.90
51725;DHT22;37801;53.224;6.552;2022-09-27T12:38:41;11.20;99.90
51725;DHT22;37801;53.224;6.552;2022-09-27T12:41:06;11.10;99.90
51725;DHT22;37801;53.224;6.552;2022-09-27T12:43:33;11.10;99.90
51725;DHT22;37801;53.224;6.552;2022-09-27T12:51:16;11.50;99.90
51725;DHT22;37801;53.224;6.552;2022-09-27T13:12:40;11.60;99.90
51725;DHT22;37801;53.224;6.552;2022-09-27T13:15:27;11.60;99.90
51725;DHT22;37801;53.224;6.552;2022-09-27T13:17:57;11.40;99.90
51725;DHT22;37801;53.224;6.552;2022-09-27T13:38:31;11.10;99.90
51725;DHT22;37801;53.224;6.552;2022-09-27T13:41:17;11.20;99.90
51725;DHT22;37801;53.224;6.552;2022-09-27T13:46:18;10.60;99.90
51725;DHT22;37801;53.224;6.552;2022-09-27T13:49:02;10.70;99.90
51725;DHT22;37801;53.224;6.552;2022-09-27T13:54:05;10.70;99.90
51725;DHT22;37801;53.224;6.552;2022-09-27T13:59:35;10.90;99.90
51725;DHT22;37801;53.224;6.552;2022-09-27T14:02:22;10.90;99.90
51725;DHT22;37801;53.224;6.552;2022-09-27T14:04:50;11.00;99.90
51725;DHT22;37801;53.224;6.552;2022-09-27T14:07:21;11.00;99.90
51725;DHT22;37801;53.224;6.552;2022-09-27T14:09:53;11.10;99.90
51725;DHT22;37801;53.224;6.552;2022-09-27T14:12:36;11.10;99.90
51725;DHT22;37801;53.224;6.552;2022-09-27T14:15:03;11.30;99.90
51725;DHT22;37801;53.224;6.552;2022-09-27T14:17:31;11.40;99.90
51725;DHT22;37801;53.224;6.552;2022-09-27T14:19:57;11.40;99.90
51725;DHT22;37801;53.224;6.552;2022-09-27T14:22:23;11.40;99.90
51725;DHT22;37801;53.224;6.552;2022-09-27T14:24:51;11.40;99.90
51725;DHT22;37801;53.224;6.552;2022-09-27T14:29:52;11.40;99.90
51725;DHT22;37801;53.224;6.552;2022-09-27T14:32:26;11.20;99.90
51725;DHT22;37801;53.224;6.552;2022-09-27T14:38:19;11.10;99.90
51725;DHT22;37801;53.224;6.552;2022-09-27T14:43:19;11.10;99.90
51725;DHT22;37801;53.224;6.552;2022-09-27T14:45:47;11.00;99.90
51725;DHT22;37801;53.224;6.552;2022-09-27T14:48:36;11.10;99.90
51725;DHT22;37801;53.224;6.552;2022-09-27T14:51:27;11.10;99.90
51725;DHT22;37801;53.224;6.552;2022-09-27T14:53:56;11.30;99.90
51725;DHT22;37801;53.224;6.552;2022-09-27T14:56:27;11.50;99.90
51725;DHT22;37801;53.224;6.552;2022-09-27T14:58:58;11.50;99.90
51725;DHT22;37801;53.224;6.552;2022-09-27T15:01:28;11.50;99.90
51725;DHT22;37801;53.224;6.552;2022-09-27T15:03:55;11.40;99.90
51725;DHT22;37801;53.224;6.552;2022-09-27T15:06:21;11.50;99.90
51725;DHT22;37801;53.224;6.552;2022-09-27T15:08:49;11.30;99.90
51725;DHT22;37801;53.224;6.552;2022-09-27T15:11:16;11.30;99.90
51725;DHT22;37801;53.224;6.552;2022-09-27T15:13:44;11.40;99.90
51725;DHT22;37801;53.224;6.552;2022-09-27T15:16:18;11.40;99.90
51725;DHT22;37801;53.224;6.552;2022-09-27T15:18:46;11.60;99.90
51725;DHT22;37801;53.224;6.552;2022-09-27T15:21:14;11.50;99.90
51725;DHT22;37801;53.224;6.552;2022-09-27T15:23:51;11.50;99.90
51725;DHT22;37801;53.224;6.552;2022-09-27T15:26:34;11.50;99.90
51725;DHT22;37801;53.224;6.552;2022-09-27T15:29:01;11.40;99.90
51725;DHT22;37801;53.224;6.552;2022-09-27T15:31:34;11.50;99.90
51725;DHT22;37801;53.224;6.552;2022-09-27T15:34:01;11.50;99.90
51725;DHT22;37801;53.224;6.552;2022-09-27T15:39:17;11.40;99.90
51725;DHT22;37801;53.224;6.552;2022-09-27T15:44:49;11.40;99.90
51725;DHT22;37801;53.224;6.552;2022-09-27T15:52:49;11.30;99.90
51725;DHT22;37801;53.224;6.552;2022-09-27T15:55:21;11.40;99.90
51725;DHT22;37801;53.224;6.552;2022-09-27T15:58:19;11.30;99.90
51725;DHT22;37801;53.224;6.552;2022-09-27T16:00:56;11.30;99.90
51725;DHT22;37801;53.224;6.552;2022-09-27T16:03:23;11.40;99.90
51725;DHT22;37801;53.224;6.552;2022-09-27T16:05:50;11.30;99.90
51725;DHT22;37801;53.224;6.552;2022-09-27T16:08:16;11.30;99.90
51725;DHT22;37801;53.224;6.552;2022-09-27T16:10:45;11.40;99.90
51725;DHT22;37801;53.224;6.552;2022-09-27T16:13:13;11.30;99.90
51725;DHT22;37801;53.224;6.552;2022-09-27T16:15:38;11.30;99.90
51725;DHT22;37801;53.224;6.552;2022-09-27T16:18:05;11.20;99.90
51725;DHT22;37801;53.224;6.552;2022-09-27T16:20:30;11.20;99.90
51725;DHT22;37801;53.224;6.552;2022-09-27T16:22:56;11.30;99.90
51725;DHT22;37801;53.224;6.552;2022-09-27T16:25:23;11.30;99.90
51725;DHT22;37801;53.224;6.552;2022-09-27T16:27:49;11.20;99.90
51725;DHT22;37801;53.224;6.552;2022-09-27T16:30:16;11.30;99.90
51725;DHT22;37801;53.224;6.552;2022-09-27T16:32:46;11.30;99.90
51725;DHT22;37801;53.224;6.552;2022-09-27T16:35:13;11.20;99.90
51725;DHT22;37801;53.224;6.552;2022-09-27T16:37:40;11.30;99.90
51725;DHT22;37801;53.224;6.552;2022-09-27T16:40:07;11.30;99.90
51725;DHT22;37801;53.224;6.552;2022-09-27T16:42:34;11.20;99.90
51725;DHT22;37801;53.224;6.552;2022-09-27T16:45:00;11.20;99.90
51725;DHT22;37801;53.224;6.552;2022-09-27T16:47:27;11.20;99.90
51725;DHT22;37801;53.224;6.552;2022-09-27T16:49:53;11.30;99.90
51725;DHT22;37801;53.224;6.552;2022-09-27T16:52:37;11.30;99.90
51725;DHT22;37801;53.224;6.552;2022-09-27T16:55:04;11.10;99.90
51725;DHT22;37801;53.224;6.552;2022-09-27T16:57:32;11.20;99.90
51725;DHT22;37801;53.224;6.552;2022-09-27T17:00:04;11.20;99.90
51725;DHT22;37801;53.224;6.552;2022-09-27T17:02:30;11.00;99.90
51725;DHT22;37801;53.224;6.552;2022-09-27T17:04:57;10.90;99.90
51725;DHT22;37801;53.224;6.552;2022-09-27T17:07:23;10.60;99.90
51725;DHT22;37801;53.224;6.552;2022-09-27T17:09:48;10.50;99.90
51725;DHT22;37801;53.224;6.552;2022-09-27T17:12:14;10.20;99.90
51725;DHT22;37801;53.224;6.552;2022-09-27T17:14:40;10.10;99.90
51725;DHT22;37801;53.224;6.552;2022-09-27T17:17:06;10.00;99.90
51725;DHT22;37801;53.224;6.552;2022-09-27T17:19:32;9.90;99.90
51725;DHT22;37801;53.224;6.552;2022-09-27T17:21:59;9.90;99.90
51725;DHT22;37801;53.224;6.552;2022-09-27T17:24:25;10.00;99.90
51725;DHT22;37801;53.224;6.552;2022-09-27T17:26:51;9.90;99.90
51725;DHT22;37801;53.224;6.552;2022-09-27T17:29:18;9.90;99.90
51725;DHT22;37801;53.224;6.552;2022-09-27T17:31:43;9.80;99.90
51725;DHT22;37801;53.224;6.552;2022-09-27T17:34:11;9.70;99.90
51725;DHT22;37801;53.224;6.552;2022-09-27T17:36:39;9.70;99.90
51725;DHT22;37801;53.224;6.552;2022-09-27T17:39:12;9.70;99.90
51725;DHT22;37801;53.224;6.552;2022-09-27T17:41:38;9.70;99.90
51725;DHT22;37801;53.224;6.552;2022-09-27T17:44:04;9.80;99.90
51725;DHT22;37801;53.224;6.552;2022-09-27T17:46:32;9.80;99.90
51725;DHT22;37801;53.224;6.552;2022-09-27T17:48:59;9.70;99.90
51725;DHT22;37801;53.224;6.552;2022-09-27T17:51:47;9.80;99.90
51725;DHT22;37801;53.224;6.552;2022-09-27T17:54:13;9.80;99.90
51725;DHT22;37801;53.224;6.552;2022-09-27T17:56:41;9.70;99.90
51725;DHT22;37801;53.224;6.552;2022-09-27T17:59:08;9.60;99.90
51725;DHT22;37801;53.224;6.552;2022-09-27T18:01:35;9.50;99.90
51725;DHT22;37801;53.224;6.552;2022-09-27T18:04:06;9.50;99.90
51725;DHT22;37801;53.224;6.552;2022-09-27T18:06:37;9.50;99.90
51725;DHT22;37801;53.224;6.552;2022-09-27T18:09:05;9.50;99.90
51725;DHT22;37801;53.224;6.552;2022-09-27T18:11:33;9.50;99.90
51725;DHT22;37801;53.224;6.552;2022-09-27T18:13:59;9.50;99.90
51725;DHT22;37801;53.224;6.552;2022-09-27T18:16:32;9.50;99.90
51725;DHT22;37801;53.224;6.552;2022-09-27T18:19:02;9.60;99.90
51725;DHT22;37801;53.224;6.552;2022-09-27T18:21:29;9.50;99.90
51725;DHT22;37801;53.224;6.552;2022-09-27T18:23:57;9.50;99.90
51725;DHT22;37801;53.224;6.552;2022-09-27T18:26:25;9.60;99.90
51725;DHT22;37801;53.224;6.552;2022-09-27T18:28:53;9.60;99.90
51725;DHT22;37801;53.224;6.552;2022-09-27T18:31:21;9.50;99.90
51725;DHT22;37801;53.224;6.552;2022-09-27T18:33:48;9.50;99.90
51725;DHT22;37801;53.224;6.552;2022-09-27T18:36:19;9.60;99.90
51725;DHT22;37801;53.224;6.552;2022-09-27T18:38:50;9.50;99.90
51725;DHT22;37801;53.224;6.552;2022-09-27T18:41:20;9.60;99.90
51725;DHT22;37801;53.224;6.552;2022-09-27T18:43:46;9.70;99.90
51725;DHT22;37801;53.224;6.552;2022-09-27T18:46:17;9.60;99.90
51725;DHT22;37801;53.224;6.552;2022-09-27T18:48:46;9.60;99.90
51725;DHT22;37801;53.224;6.552;2022-09-27T18:51:17;9.50;99.90